createdAt,value
2018-09-21T13:28:42.636Z,997.26
2018-09-21T13:33:04.160Z,997.15
2018-09-21T13:35:14.954Z,997.1
2018-09-21T13:36:13.830Z,997.05
2018-09-21T13:37:12.716Z,997.08
2018-09-21T13:38:12.024Z,996.93
2018-09-21T13:39:42.424Z,996.9
2018-09-21T13:40:41.465Z,996.96
2018-09-21T13:41:40.129Z,996.92
2018-09-21T13:42:38.655Z,996.95
2018-09-21T13:43:37.549Z,996.98
2018-09-21T13:44:36.262Z,996.96
2018-09-21T13:45:34.914Z,996.96
2018-09-21T13:46:33.688Z,996.95
2018-09-21T13:47:32.393Z,996.91
2018-09-21T13:48:31.168Z,997.01
2018-09-21T13:49:30.462Z,997.04
2018-09-21T13:50:29.254Z,997
2018-09-21T13:51:28.250Z,997.02
2018-09-21T13:52:26.820Z,997.05
2018-09-21T13:53:25.481Z,997.09
2018-09-21T13:54:24.065Z,997
2018-09-21T13:55:22.690Z,997.04
2018-09-21T13:56:21.898Z,997.01
2018-09-21T13:57:21.653Z,997.17
2018-09-21T14:00:01.816Z,997.15
2018-09-21T14:01:00.793Z,997.05
2018-09-21T14:01:59.697Z,997.01
2018-09-21T14:02:58.280Z,997.06
2018-09-21T14:03:57.004Z,997.18
2018-09-21T14:06:37.432Z,997.18
2018-09-21T14:09:18.305Z,997.13
2018-09-21T14:10:16.929Z,997.27
2018-09-21T14:11:15.692Z,997.31
2018-09-21T14:28:24.039Z,998.48
2018-09-21T14:31:05.296Z,998.48
2018-09-21T14:32:05.566Z,998.67
2018-09-21T14:37:26.948Z,999.12
2018-09-21T14:40:09.132Z,999.33
2018-09-21T14:42:39.383Z,999.45
2018-09-21T14:43:40.968Z,999.54
2018-09-21T14:44:40.392Z,999.66
2018-09-21T14:46:49.863Z,999.92
2018-09-21T14:47:48.688Z,999.95
2018-09-21T14:50:39.856Z,1000.22
2018-09-21T14:51:50.090Z,1000.31
2018-09-21T15:02:33.322Z,1000.72
2018-09-21T15:04:16.261Z,1000.77
2018-09-21T15:55:28.176Z,1002.34
2018-09-21T15:56:25.133Z,1002.37
2018-09-21T15:58:46.357Z,1002.42
2018-09-21T15:59:45.534Z,1002.5
2018-09-21T16:02:26.475Z,1002.65
2018-09-21T16:03:28.561Z,1002.68
2018-09-21T16:04:28.216Z,1002.73
2018-09-21T16:05:27.221Z,1002.66
2018-09-21T16:06:26.227Z,1002.63
2018-09-21T16:07:25.559Z,1002.6
2018-09-21T16:08:24.678Z,1002.57
2018-09-21T16:09:24.403Z,1002.59
2018-09-21T16:12:04.643Z,1002.62
2018-09-21T16:13:06.141Z,1002.65
2018-09-21T16:14:12.662Z,1002.71
2018-09-21T16:15:11.351Z,1002.74
2018-09-21T16:16:10.612Z,1002.66
2018-09-21T16:17:09.273Z,1002.71
2018-09-21T16:19:50.863Z,1002.6
2018-09-21T16:20:50.362Z,1002.63
2018-09-21T16:21:49.307Z,1002.7
2018-09-21T16:22:48.301Z,1002.71
2018-09-21T16:23:47.270Z,1002.76
2018-09-21T16:24:46.230Z,1002.83
2018-09-21T16:25:45.004Z,1002.85
2018-09-21T16:28:25.465Z,1003.11
2018-09-21T16:29:24.570Z,1003.07
2018-09-21T16:30:23.402Z,1003.09
2018-09-21T16:31:22.290Z,1003.04
2018-09-21T16:32:21.508Z,1002.99
2018-09-21T16:33:21.013Z,1002.99
2018-09-21T16:34:20.663Z,1003.05
2018-09-21T16:35:19.760Z,1003.11
2018-09-21T16:36:20.410Z,1003.12
2018-09-21T16:37:19.705Z,1003.19
2018-09-21T16:38:20.481Z,1003.16
2018-09-21T16:39:19.311Z,1003.2
2018-09-21T16:40:18.270Z,1003.09
2018-09-21T16:41:17.081Z,1003.2
2018-09-21T16:42:16.186Z,1003.2
2018-09-21T16:43:14.947Z,1003.22
2018-09-21T16:44:13.890Z,1003.2
2018-09-21T16:46:54.740Z,1003.29
2018-09-21T16:49:35.092Z,1003.38
2018-09-21T16:52:19.885Z,1003.38
2018-09-21T16:53:19.033Z,1003.3
2018-09-21T16:54:18.034Z,1003.3
2018-09-21T16:55:16.864Z,1003.29
2018-09-21T16:59:21.669Z,1003.37
2018-09-21T17:00:20.500Z,1003.35
2018-09-21T17:01:19.311Z,1003.42
2018-09-21T17:04:03.782Z,1003.5
2018-09-21T17:05:02.659Z,1003.52
2018-09-21T17:08:41.825Z,1003.51
2018-09-21T17:09:40.757Z,1003.51
2018-09-21T17:10:40.169Z,1003.49
2018-09-21T17:28:42.086Z,1003.74
2018-09-21T17:29:40.676Z,1003.71
2018-09-21T17:30:40.059Z,1003.75
2018-09-21T17:31:38.710Z,1003.73
2018-09-21T17:32:37.636Z,1003.73
2018-09-21T17:33:36.298Z,1003.8
2018-09-21T17:34:35.194Z,1003.81
2018-09-21T17:35:36.152Z,1003.81
2018-09-21T17:38:00.046Z,1003.84
2018-09-21T17:38:58.683Z,1003.9
2018-09-21T17:39:57.475Z,1003.87
2018-09-21T17:40:56.014Z,1003.86
2018-09-21T17:41:54.773Z,1003.87
2018-09-21T17:42:53.286Z,1003.91
2018-09-21T17:43:52.441Z,1003.96
2018-09-21T17:44:54.460Z,1003.96
2018-09-21T17:49:21.735Z,1004.11
2018-09-21T17:50:21.355Z,1004.15
2018-09-21T17:53:54.038Z,1004.23
2018-09-21T17:54:52.914Z,1004.28
2018-09-21T18:01:02.090Z,1004.46
2018-09-21T18:02:00.593Z,1004.53
2018-09-21T18:02:59.575Z,1004.49
2018-09-21T18:03:58.164Z,1004.54
2018-09-21T18:04:56.768Z,1004.5
2018-09-21T18:05:55.468Z,1004.56
2018-09-21T18:08:21.660Z,1004.57
2018-09-21T18:09:20.024Z,1004.61
2018-09-21T18:10:19.111Z,1004.67
2018-09-21T18:14:45.747Z,1004.71
2018-09-21T18:15:45.516Z,1004.77
2018-09-21T18:20:07.794Z,1004.82
2018-09-21T18:22:48.218Z,1004.87
2018-09-21T18:27:17.821Z,1004.98
2018-09-21T18:28:21.679Z,1005
2018-09-21T18:30:28.788Z,1005.08
2018-09-21T18:34:08.694Z,1005.08
2018-09-21T18:35:07.614Z,1005.08
2018-09-21T18:36:07.742Z,1005.12
2018-09-21T18:37:06.735Z,1005.13
2018-09-21T18:38:05.623Z,1005.09
2018-09-21T18:43:26.638Z,1005.08
2018-09-21T18:44:26.304Z,1005.09
2018-09-21T18:45:26.536Z,1005.12
2018-09-21T18:51:04.422Z,1005.24
2018-09-21T18:53:45.008Z,1005.25
2018-09-21T18:54:43.920Z,1005.26
2018-09-21T19:00:13.345Z,1005.35
2018-09-21T19:01:12.284Z,1005.37
2018-09-21T19:03:52.476Z,1005.47
2018-09-21T19:04:51.279Z,1005.52
2018-09-21T19:05:50.307Z,1005.5
2018-09-21T19:06:49.097Z,1005.52
2018-09-21T19:07:48.032Z,1005.55
2018-09-21T19:08:46.968Z,1005.57
2018-09-21T19:09:45.893Z,1005.53
2018-09-21T19:12:26.384Z,1005.59
2018-09-21T19:16:48.753Z,1005.76
2018-09-21T19:20:54.227Z,1005.76
2018-09-21T19:23:35.179Z,1005.81
2018-09-21T19:24:34.650Z,1005.87
2018-09-21T19:25:33.870Z,1005.87
2018-09-21T19:26:32.970Z,1005.86
2018-09-21T19:29:13.436Z,1005.9
2018-09-21T19:30:12.532Z,1005.88
2018-09-21T19:32:51.343Z,1005.96
2018-09-21T19:35:32.109Z,1006.03
2018-09-21T19:36:33.866Z,1006.09
2018-09-21T19:37:34.028Z,1006.09
2018-09-21T19:38:33.307Z,1006.05
2018-09-21T19:40:34.337Z,1006.06
2018-09-21T19:43:18.232Z,1006.1
2018-09-21T19:45:17.117Z,1006.1
2018-09-21T19:47:41.650Z,1006.13
2018-09-21T19:56:17.921Z,1006.33
2018-09-21T19:57:16.689Z,1006.33
2018-09-21T19:58:15.396Z,1006.33
2018-09-21T19:59:14.147Z,1006.37
2018-09-21T20:00:12.637Z,1006.37
2018-09-21T20:01:11.407Z,1006.37
2018-09-21T20:02:10.278Z,1006.38
2018-09-21T20:03:08.833Z,1006.37
2018-09-21T20:04:07.534Z,1006.39
2018-09-21T20:24:31.253Z,1006.68
2018-09-21T20:25:30.079Z,1006.6
2018-09-21T20:26:28.769Z,1006.7
2018-09-21T20:27:27.555Z,1006.66
2018-09-21T20:28:26.459Z,1006.75
2018-09-21T20:29:25.180Z,1006.68
2018-09-21T20:30:23.890Z,1006.73
2018-09-21T20:31:22.582Z,1006.71
2018-09-21T20:32:21.357Z,1006.73
2018-09-21T20:33:22.866Z,1006.75
2018-09-21T20:34:21.618Z,1006.72
2018-09-21T20:35:20.125Z,1006.74
2018-09-21T20:36:18.727Z,1006.76
2018-09-21T20:37:17.713Z,1006.83
2018-09-21T20:38:16.465Z,1006.84
2018-09-21T20:40:34.848Z,1006.93
2018-09-21T20:41:33.410Z,1006.93
2018-09-21T20:42:32.376Z,1006.91
2018-09-21T20:43:32.000Z,1006.95
2018-09-21T20:44:30.566Z,1006.94
2018-09-21T20:47:11.624Z,1007
2018-09-21T20:48:10.413Z,1007.03
2018-09-21T20:49:09.043Z,1007.06
2018-09-21T20:50:07.670Z,1007.06
2018-09-21T20:51:06.289Z,1007.07
2018-09-21T20:52:05.019Z,1007.11
2018-09-21T20:53:03.578Z,1007.14
2018-09-21T20:54:02.222Z,1007.18
2018-09-21T20:55:00.812Z,1007.15
2018-09-21T20:55:59.375Z,1007.1
2018-09-21T20:56:58.052Z,1007.15
2018-09-21T20:57:56.705Z,1007.11
2018-09-21T20:58:55.375Z,1007.14
2018-09-21T20:59:54.047Z,1007.15
2018-09-21T21:00:52.538Z,1007.18
2018-09-21T21:01:51.206Z,1007.17
2018-09-21T21:02:49.805Z,1007.17
2018-09-21T21:03:48.586Z,1007.22
2018-09-21T21:04:47.197Z,1007.16
2018-09-21T21:05:45.867Z,1007.24
2018-09-21T21:06:44.450Z,1007.23
2018-09-21T21:07:43.338Z,1007.2
2018-09-21T21:08:41.920Z,1007.23
2018-09-21T21:09:40.501Z,1007.29
2018-09-21T21:10:39.096Z,1007.32
2018-09-21T21:11:37.996Z,1007.36
2018-09-21T21:12:36.675Z,1007.38
2018-09-21T21:13:35.213Z,1007.41
2018-09-21T21:14:34.026Z,1007.44
2018-09-21T21:15:32.664Z,1007.46
2018-09-21T21:16:31.271Z,1007.51
2018-09-21T21:17:29.898Z,1007.52
2018-09-21T21:18:28.702Z,1007.48
2018-09-21T21:19:27.280Z,1007.5
2018-09-21T21:20:26.070Z,1007.49
2018-09-21T21:21:24.698Z,1007.48
2018-09-21T21:24:05.147Z,1007.45
2018-09-21T21:25:03.673Z,1007.44
2018-09-21T21:26:02.450Z,1007.54
2018-09-21T21:27:01.205Z,1007.57
2018-09-21T21:28:00.022Z,1007.58
2018-09-21T21:28:58.634Z,1007.59
2018-09-21T21:29:57.192Z,1007.62
2018-09-21T21:30:55.821Z,1007.64
2018-09-21T21:31:54.514Z,1007.65
2018-09-21T21:32:53.180Z,1007.64
2018-09-21T21:33:52.103Z,1007.66
2018-09-21T21:34:50.715Z,1007.6
2018-09-21T21:35:49.402Z,1007.6
2018-09-21T21:36:48.189Z,1007.61
2018-09-21T21:37:46.857Z,1007.61
2018-09-21T21:38:45.478Z,1007.67
2018-09-21T21:39:44.253Z,1007.71
2018-09-21T21:40:42.904Z,1007.77
2018-09-21T21:41:41.489Z,1007.78
2018-09-21T21:42:40.272Z,1007.8
2018-09-21T21:43:38.826Z,1007.78
2018-09-21T21:44:37.597Z,1007.8
2018-09-21T21:45:36.373Z,1007.85
2018-09-21T21:46:35.041Z,1007.82
2018-09-21T21:47:33.754Z,1007.83
2018-09-21T21:48:32.465Z,1007.8
2018-09-21T21:49:31.024Z,1007.76
2018-09-21T21:50:29.769Z,1007.8
2018-09-21T21:51:28.458Z,1007.8
2018-09-21T21:52:27.000Z,1007.84
2018-09-21T21:53:25.551Z,1007.78
2018-09-21T21:54:24.205Z,1007.73
2018-09-21T21:55:22.828Z,1007.78
2018-09-21T21:56:21.415Z,1007.81
2018-09-21T21:57:19.979Z,1007.83
2018-09-21T21:58:18.732Z,1007.88
2018-09-21T21:59:17.347Z,1007.92
2018-09-21T22:00:16.111Z,1007.99
2018-09-21T22:01:14.876Z,1008.08
2018-09-21T22:02:13.572Z,1008.07
2018-09-21T22:03:12.142Z,1008.12
2018-09-21T22:04:10.821Z,1008.12
2018-09-21T22:08:32.904Z,1008.14
2018-09-21T22:09:31.505Z,1008.14
2018-09-21T22:10:30.463Z,1008.12
2018-09-21T22:11:29.101Z,1008.2
2018-09-21T22:12:27.871Z,1008.22
2018-09-21T22:13:26.475Z,1008.25
2018-09-21T22:14:25.063Z,1008.2
2018-09-21T22:15:24.027Z,1008.19
2018-09-21T22:16:22.688Z,1008.18
2018-09-21T22:17:21.330Z,1008.2
2018-09-21T22:18:20.122Z,1008.2
2018-09-21T22:19:18.890Z,1008.19
2018-09-21T22:20:17.528Z,1008.15
2018-09-21T22:21:16.173Z,1008.15
2018-09-21T22:22:15.133Z,1008.18
2018-09-21T22:23:13.785Z,1008.17
2018-09-21T22:24:12.704Z,1008.21
2018-09-21T22:27:51.681Z,1008.2
2018-09-21T22:28:50.332Z,1008.24
2018-09-21T22:29:48.956Z,1008.25
2018-09-21T22:30:47.577Z,1008.27
2018-09-21T22:31:46.413Z,1008.23
2018-09-21T22:32:44.970Z,1008.23
2018-09-21T22:33:43.856Z,1008.25
2018-09-21T22:34:42.706Z,1008.27
2018-09-21T22:40:03.201Z,1008.37
2018-09-21T22:41:01.974Z,1008.34
2018-09-21T22:42:00.578Z,1008.37
2018-09-21T22:42:59.186Z,1008.33
2018-09-21T22:43:57.933Z,1008.41
2018-09-21T22:44:56.669Z,1008.37
2018-09-21T22:45:55.436Z,1008.42
2018-09-21T22:46:54.126Z,1008.45
2018-09-21T22:49:34.179Z,1008.43
2018-09-21T22:50:32.842Z,1008.4
2018-09-21T22:51:31.324Z,1008.39
2018-09-21T22:52:29.917Z,1008.45
2018-09-21T22:53:28.639Z,1008.43
2018-09-21T22:54:27.361Z,1008.46
2018-09-21T22:55:26.197Z,1008.56
2018-09-21T22:56:24.766Z,1008.56
2018-09-21T22:57:23.329Z,1008.57
2018-09-21T22:58:22.048Z,1008.59
2018-09-21T23:00:45.718Z,1008.56
2018-09-21T23:01:44.515Z,1008.54
2018-09-21T23:02:43.102Z,1008.62
2018-09-21T23:03:41.642Z,1008.63
2018-09-21T23:04:40.251Z,1008.58
2018-09-21T23:07:20.838Z,1008.49
2018-09-21T23:08:19.545Z,1008.5
2018-09-21T23:09:18.199Z,1008.5
2018-09-21T23:10:16.782Z,1008.49
2018-09-21T23:11:15.380Z,1008.48
2018-09-21T23:12:14.232Z,1008.45
2018-09-21T23:13:12.807Z,1008.47
2018-09-21T23:14:11.460Z,1008.45
2018-09-21T23:15:10.095Z,1008.46
2018-09-21T23:16:08.613Z,1008.46
2018-09-21T23:17:07.201Z,1008.48
2018-09-21T23:18:05.803Z,1008.46
2018-09-21T23:19:04.383Z,1008.45
2018-09-21T23:20:02.931Z,1008.48
2018-09-21T23:21:01.538Z,1008.46
2018-09-21T23:22:00.058Z,1008.38
2018-09-21T23:22:58.555Z,1008.45
2018-09-21T23:23:57.086Z,1008.52
2018-09-21T23:24:55.940Z,1008.49
2018-09-21T23:25:54.671Z,1008.51
2018-09-21T23:26:53.380Z,1008.48
2018-09-21T23:27:51.947Z,1008.46
2018-09-21T23:28:50.513Z,1008.46
2018-09-21T23:29:49.133Z,1008.5
2018-09-21T23:30:47.726Z,1008.55
2018-09-21T23:31:46.406Z,1008.49
2018-09-21T23:32:44.886Z,1008.52
2018-09-21T23:35:25.191Z,1008.49
2018-09-21T23:36:23.876Z,1008.53
2018-09-21T23:40:02.615Z,1008.68
2018-09-21T23:41:01.354Z,1008.69
2018-09-21T23:41:59.845Z,1008.69
2018-09-21T23:42:58.475Z,1008.7
2018-09-21T23:43:56.994Z,1008.7
2018-09-21T23:44:55.629Z,1008.68
2018-09-21T23:48:34.723Z,1008.84
2018-09-21T23:49:33.383Z,1008.86
2018-09-21T23:50:32.082Z,1008.84
2018-09-21T23:51:30.692Z,1008.88
2018-09-21T23:52:29.383Z,1008.87
2018-09-21T23:55:09.528Z,1008.94
2018-09-21T23:56:08.119Z,1008.92
2018-09-21T23:57:06.669Z,1008.87
2018-09-21T23:58:05.270Z,1008.95
2018-09-21T23:59:03.837Z,1008.92
